Time;durP1;ratioP1;P1;durP2;ratioP2;P2;SDS_P1;SDS_P2;PMS_P1;PMS_P2;Temp;Humidity;BMP_temperature;BMP_pressure;BME280_temperature;BME280_humidity;BME280_pressure;Samples;Min_cycle;Max_cycle;Signal;HPM_P1;HPM_P2
2022/04/02 00:01:44;;;;;;;17.27;12.88;;;21.60;99.90;;;;;;5033807;28;20056;-53
2022/04/02 00:04:10;;;;;;;19.90;13.20;;;21.60;99.90;;;;;;5033871;28;20037;-53
2022/04/02 00:06:37;;;;;;;19.67;13.35;;;21.60;99.90;;;;;;5032568;28;20037;-53
2022/04/02 00:09:04;;;;;;;19.00;13.50;;;21.60;99.90;;;;;;5033799;28;20025;-54
2022/04/02 00:11:31;;;;;;;19.35;13.55;;;21.60;99.90;;;;;;5033915;28;20607;-53
2022/04/02 00:13:58;;;;;;;15.95;12.50;;;21.60;99.90;;;;;;5033794;28;20033;-53
2022/04/02 00:16:24;;;;;;;17.70;13.05;;;21.60;99.90;;;;;;5033423;28;20181;-54
2022/04/02 00:18:50;;;;;;;18.92;12.65;;;21.50;99.90;;;;;;5033639;28;20045;-53
2022/04/02 00:21:17;;;;;;;16.38;12.85;;;21.50;99.90;;;;;;5033648;28;20058;-53
2022/04/02 00:23:44;;;;;;;16.65;12.32;;;21.60;99.90;;;;;;5033462;28;20381;-53
2022/04/02 00:26:21;;;;;;;17.63;12.73;;;21.60;99.90;;;;;;5033589;28;20524;-53
2022/04/02 00:28:49;;;;;;;20.08;13.25;;;21.50;99.90;;;;;;5033582;28;20378;-53
2022/04/02 00:31:16;;;;;;;17.70;12.77;;;21.60;99.90;;;;;;5033422;28;20496;-53
2022/04/02 00:33:44;;;;;;;19.40;12.98;;;21.50;99.90;;;;;;5033337;28;20108;-54
2022/04/02 00:36:10;;;;;;;15.43;11.38;;;21.50;99.90;;;;;;5033208;28;20068;-53
2022/04/02 00:38:37;;;;;;;16.77;12.38;;;21.50;99.90;;;;;;5033283;28;20539;-53
2022/04/02 00:41:03;;;;;;;19.10;12.80;;;21.50;99.90;;;;;;5033176;28;20033;-53
2022/04/02 00:43:36;;;;;;;17.27;11.52;;;21.50;99.90;;;;;;5031996;28;20080;-53
2022/04/02 00:46:12;;;;;;;18.90;12.30;;;21.50;99.90;;;;;;5033145;28;20044;-53
2022/04/02 00:48:39;;;;;;;15.82;11.85;;;21.50;99.90;;;;;;5033008;28;20221;-52
2022/04/02 00:51:06;;;;;;;15.98;11.93;;;21.50;99.90;;;;;;5032918;28;20025;-53
2022/04/02 00:53:37;;;;;;;17.58;11.23;;;21.50;99.90;;;;;;5033049;28;20017;-53
2022/04/02 00:56:05;;;;;;;18.83;12.38;;;21.50;99.90;;;;;;5032814;28;20044;-54
2022/04/02 00:58:31;;;;;;;15.65;11.85;;;21.50;99.90;;;;;;5032919;28;20014;-54
2022/04/02 01:00:57;;;;;;;15.25;11.80;;;21.40;99.90;;;;;;5032138;28;20434;-53
2022/04/02 01:03:24;;;;;;;17.45;11.38;;;21.40;99.90;;;;;;5032563;28;20108;-53
2022/04/02 01:05:50;;;;;;;18.37;11.53;;;21.40;99.90;;;;;;5032638;28;20033;-53
2022/04/02 01:08:17;;;;;;;17.67;11.63;;;21.40;99.90;;;;;;5032580;28;20739;-54
2022/04/02 01:10:44;;;;;;;16.50;11.50;;;21.40;99.90;;;;;;5032518;28;20071;-53
2022/04/02 01:13:10;;;;;;;16.80;11.68;;;21.40;99.90;;;;;;5032474;28;20101;-53
2022/04/02 01:15:37;;;;;;;15.10;10.65;;;21.40;99.90;;;;;;5032351;28;20084;-53
2022/04/02 01:18:04;;;;;;;17.20;11.30;;;21.40;99.90;;;;;;5032507;28;20552;-53
2022/04/02 01:20:31;;;;;;;16.42;11.27;;;21.40;99.90;;;;;;5032524;28;20382;-53
2022/04/02 01:23:00;;;;;;;16.73;11.35;;;21.40;99.90;;;;;;5032291;28;20057;-53
2022/04/02 01:25:34;;;;;;;15.73;10.55;;;21.40;99.90;;;;;;5032298;28;20079;-53
2022/04/02 01:28:00;;;;;;;15.50;10.93;;;21.40;99.90;;;;;;5030903;28;20032;-53
2022/04/02 01:30:27;;;;;;;14.55;11.32;;;21.40;99.90;;;;;;5032115;28;20037;-53
2022/04/02 01:32:54;;;;;;;16.58;11.75;;;21.30;99.90;;;;;;5032161;28;20029;-53
2022/04/02 01:35:21;;;;;;;14.18;10.43;;;21.30;99.90;;;;;;5031919;28;20037;-53
2022/04/02 01:37:47;;;;;;;16.45;10.85;;;21.30;99.90;;;;;;5032021;28;20389;-53
2022/04/02 01:40:13;;;;;;;13.95;10.00;;;21.30;99.90;;;;;;5030611;28;20032;-52
2022/04/02 01:42:39;;;;;;;15.00;10.88;;;21.30;99.90;;;;;;5031955;28;20030;-53
2022/04/02 01:45:05;;;;;;;15.35;11.38;;;21.30;99.90;;;;;;5032191;28;20032;-53
2022/04/02 01:47:31;;;;;;;18.52;11.57;;;21.30;99.90;;;;;;5030524;28;20068;-54
2022/04/02 01:49:57;;;;;;;15.02;10.65;;;21.30;99.90;;;;;;5031880;28;20504;-53
2022/04/02 01:52:23;;;;;;;16.25;10.80;;;21.30;99.90;;;;;;5031803;28;20741;-53
2022/04/02 01:54:49;;;;;;;14.73;10.85;;;21.30;99.90;;;;;;5031756;28;20067;-52
2022/04/02 01:57:16;;;;;;;15.60;10.57;;;21.30;99.90;;;;;;5031769;28;20034;-53
2022/04/02 01:59:44;;;;;;;17.05;10.52;;;21.20;99.90;;;;;;5032045;28;20022;-53
2022/04/02 02:02:10;;;;;;;;;;;21.20;99.90;;;;;;5032334;28;20037;-53
2022/04/02 02:04:37;;;;;;;16.40;10.75;;;21.20;99.90;;;;;;5031853;28;19948;-53
2022/04/02 02:07:04;;;;;;;14.75;10.48;;;21.20;99.90;;;;;;5031590;28;20022;-53
2022/04/02 02:09:30;;;;;;;12.15;9.80;;;21.20;99.90;;;;;;5031464;28;20021;-53
2022/04/02 02:11:56;;;;;;;14.95;10.68;;;21.20;99.90;;;;;;5031210;28;20543;-53
2022/04/02 02:14:22;;;;;;;14.75;10.32;;;21.20;99.90;;;;;;5031473;28;20033;-53
2022/04/02 02:16:49;;;;;;;14.38;10.18;;;21.20;99.90;;;;;;5031480;28;20029;-53
2022/04/02 02:19:15;;;;;;;14.63;9.82;;;21.20;99.90;;;;;;5031631;28;20029;-53
2022/04/02 02:21:41;;;;;;;14.68;9.43;;;21.20;99.90;;;;;;5030127;28;20037;-53
2022/04/02 02:24:08;;;;;;;15.00;10.35;;;21.10;99.90;;;;;;5031807;28;20072;-53
2022/04/02 02:26:34;;;;;;;14.38;9.40;;;21.10;99.90;;;;;;5031356;28;20029;-54
2022/04/02 02:29:00;;;;;;;14.57;10.13;;;21.10;99.90;;;;;;5031238;28;20108;-53
2022/04/02 02:31:26;;;;;;;13.55;9.98;;;21.10;99.90;;;;;;5031389;28;20021;-53
2022/04/02 02:36:36;;;;;;;14.25;9.50;;;21.10;99.90;;;;;;5031403;28;20397;-53
2022/04/02 02:39:03;;;;;;;14.55;10.05;;;21.10;99.90;;;;;;5031195;28;20026;-53
2022/04/02 02:41:28;;;;;;;12.43;9.13;;;21.10;99.90;;;;;;5031212;28;20030;-53
2022/04/02 02:43:54;;;;;;;13.50;9.68;;;21.10;99.90;;;;;;5031238;28;20050;-53
2022/04/02 02:46:20;;;;;;;13.85;10.48;;;21.10;99.90;;;;;;5031155;28;20033;-53
2022/04/02 02:48:46;;;;;;;15.00;9.35;;;21.10;99.90;;;;;;5031246;28;20025;-51
2022/04/02 02:51:13;;;;;;;15.32;9.88;;;21.10;99.90;;;;;;5031010;28;20032;-53
2022/04/02 02:53:39;;;;;;;13.02;9.10;;;21.10;99.90;;;;;;5031272;28;20021;-53
2022/04/02 02:56:05;;;;;;;11.55;8.73;;;21.10;99.90;;;;;;5031030;28;20028;-53
2022/04/02 02:58:31;;;;;;;11.20;8.90;;;21.10;99.90;;;;;;5031021;28;20033;-53
2022/04/02 03:00:57;;;;;;;12.30;9.13;;;21.10;99.90;;;;;;5031407;28;20060;-52
2022/04/02 03:03:23;;;;;;;12.43;8.73;;;21.10;99.90;;;;;;5031064;28;20053;-52
2022/04/02 03:05:50;;;;;;;14.57;9.65;;;21.10;99.90;;;;;;5030890;28;20021;-53
2022/04/02 03:08:16;;;;;;;12.55;9.15;;;21.10;99.90;;;;;;5031176;28;20032;-53
2022/04/02 03:10:46;;;;;;;16.85;10.20;;;21.00;99.90;;;;;;5031058;28;20025;-54
2022/04/02 03:13:12;;;;;;;12.80;9.13;;;21.00;99.90;;;;;;5029862;28;20075;-53
2022/04/02 03:15:38;;;;;;;14.02;9.32;;;21.00;99.90;;;;;;5031082;28;20025;-53
2022/04/02 03:18:06;;;;;;;13.20;8.57;;;21.00;99.90;;;;;;5030948;28;20125;-53
2022/04/02 03:20:32;;;;;;;;;;;21.00;99.90;;;;;;5031260;28;20473;-54
2022/04/02 03:22:58;;;;;;;12.10;8.77;;;21.00;99.90;;;;;;5030974;28;19959;-53
2022/04/02 03:25:24;;;;;;;13.15;9.20;;;21.00;99.90;;;;;;5033098;28;20358;-53
2022/04/02 03:27:50;;;;;;;13.63;9.40;;;21.00;99.90;;;;;;5033293;28;20022;-53
2022/04/02 03:30:20;;;;;;;12.65;9.00;;;21.00;99.90;;;;;;5034508;28;20088;-53
2022/04/02 03:32:46;;;;;;;12.90;9.35;;;21.00;99.90;;;;;;5033274;28;20022;-53
2022/04/02 03:35:14;;;;;;;12.75;8.75;;;21.00;99.90;;;;;;5034507;28;20029;-53
2022/04/02 03:37:41;;;;;;;12.95;9.35;;;21.00;99.90;;;;;;5034646;28;20116;-53
2022/04/02 03:40:10;;;;;;;11.32;8.30;;;21.00;99.90;;;;;;5034350;28;20109;-52
2022/04/02 03:42:39;;;;;;;11.70;8.10;;;21.00;99.90;;;;;;5034407;28;20033;-53
2022/04/02 03:45:06;;;;;;;14.10;9.65;;;21.00;99.90;;;;;;5034251;28;20029;-52
2022/04/02 03:47:32;;;;;;;12.65;9.13;;;21.00;99.90;;;;;;5034192;28;20048;-52
2022/04/02 03:49:58;;;;;;;11.55;8.38;;;21.00;99.90;;;;;;5034174;28;20502;-53
2022/04/02 03:52:24;;;;;;;13.07;9.45;;;20.90;99.90;;;;;;5034007;28;20029;-52
2022/04/02 03:54:50;;;;;;;11.15;8.32;;;21.00;99.90;;;;;;5032856;28;20024;-53
2022/04/02 03:57:16;;;;;;;12.60;9.13;;;21.00;99.90;;;;;;5034074;28;20030;-53
2022/04/02 03:59:43;;;;;;;13.00;9.43;;;20.90;99.90;;;;;;5034590;28;20028;-52
2022/04/02 04:02:10;;;;;;;12.15;8.43;;;21.00;99.90;;;;;;5034347;28;20034;-53
2022/04/02 04:04:37;;;;;;;13.32;8.98;;;21.00;99.90;;;;;;5033888;28;20423;-52
2022/04/02 04:07:04;;;;;;;13.40;9.50;;;20.90;99.90;;;;;;5033808;28;20493;-52
2022/04/02 04:09:29;;;;;;;13.05;9.45;;;20.90;99.90;;;;;;5033867;28;20026;-52
2022/04/02 04:11:55;;;;;;;13.07;9.45;;;20.90;99.90;;;;;;5032590;28;20056;-52
2022/04/02 04:14:25;;;;;;;12.65;8.20;;;20.90;99.90;;;;;;5048965;28;20060;-52
2022/04/02 04:16:52;;;;;;;12.13;8.60;;;20.90;99.90;;;;;;5033749;28;20516;-52
2022/04/02 04:19:18;;;;;;;12.55;8.00;;;20.90;99.90;;;;;;5033684;28;20184;-53
2022/04/02 04:21:44;;;;;;;12.82;8.45;;;20.90;99.90;;;;;;5033802;28;20037;-52
2022/04/02 04:24:10;;;;;;;11.65;8.32;;;20.90;99.90;;;;;;5033465;28;20037;-52
2022/04/02 04:26:38;;;;;;;12.65;8.40;;;20.90;99.90;;;;;;5033357;28;20097;-52
2022/04/02 04:29:04;;;;;;;13.02;8.15;;;20.90;99.90;;;;;;5033483;28;20095;-52
2022/04/02 04:31:30;;;;;;;14.65;8.60;;;20.90;99.90;;;;;;5033441;28;20053;-52
2022/04/02 04:33:56;;;;;;;11.43;7.90;;;20.90;99.90;;;;;;5033366;28;20022;-53
2022/04/02 04:36:22;;;;;;;11.98;7.20;;;20.90;99.90;;;;;;5032949;28;20046;-51
2022/04/02 04:38:49;;;;;;;10.52;7.40;;;20.90;99.90;;;;;;5033366;28;20053;-52
2022/04/02 04:41:17;;;;;;;13.47;7.87;;;20.80;99.90;;;;;;5033541;28;20039;-51
2022/04/02 04:43:46;;;;;;;11.85;7.88;;;20.90;99.90;;;;;;5033218;28;20026;-53
2022/04/02 04:46:12;;;;;;;10.60;7.85;;;20.90;99.90;;;;;;5033214;28;20116;-52
2022/04/02 04:48:38;;;;;;;12.18;8.40;;;20.90;99.90;;;;;;5033384;28;20100;-53
2022/04/02 04:51:04;;;;;;;11.88;8.15;;;20.80;99.90;;;;;;5033057;28;20499;-53
2022/04/02 04:53:32;;;;;;;11.07;6.88;;;20.90;99.90;;;;;;5033063;28;20026;-53
2022/04/02 04:55:58;;;;;;;11.50;7.82;;;20.90;99.90;;;;;;5032781;28;20030;-52
2022/04/02 04:58:24;;;;;;;9.80;7.55;;;20.90;99.90;;;;;;5033011;28;20106;-53
2022/04/02 05:00:50;;;;;;;12.43;7.30;;;20.80;99.90;;;;;;5032569;28;20053;-52
2022/04/02 05:03:16;;;;;;;11.90;7.22;;;20.90;99.90;;;;;;5033068;28;20029;-53
2022/04/02 05:05:42;;;;;;;11.63;8.27;;;20.90;99.90;;;;;;5032846;28;20025;-52
2022/04/02 05:08:08;;;;;;;10.63;7.05;;;20.90;99.90;;;;;;5032733;28;20091;-52
2022/04/02 05:10:34;;;;;;;10.93;7.63;;;20.90;99.90;;;;;;5031285;28;20388;-53
2022/04/02 05:13:03;;;;;;;10.75;7.47;;;20.80;99.90;;;;;;5032611;28;20056;-52
2022/04/02 05:15:29;;;;;;;11.38;7.32;;;20.90;99.90;;;;;;5032438;28;20037;-52
2022/04/02 05:17:56;;;;;;;11.30;7.55;;;20.80;99.90;;;;;;5032363;28;20030;-52
2022/04/02 05:20:22;;;;;;;10.68;7.50;;;20.80;99.90;;;;;;5032436;28;20104;-52
2022/04/02 05:22:48;;;;;;;10.75;6.88;;;20.80;99.90;;;;;;5032676;28;20037;-52
2022/04/02 05:25:16;;;;;;;10.13;6.93;;;20.80;99.90;;;;;;5032383;28;20025;-52
2022/04/02 05:27:43;;;;;;;10.63;7.63;;;20.80;99.90;;;;;;5032329;28;20440;-52
2022/04/02 05:30:11;;;;;;;8.70;6.43;;;20.80;99.90;;;;;;5032327;28;20100;-52
2022/04/02 05:32:37;;;;;;;9.18;6.57;;;20.80;99.90;;;;;;5032287;28;20060;-52
2022/04/02 05:35:04;;;;;;;11.57;6.90;;;20.80;99.90;;;;;;5032091;28;20026;-53
2022/04/02 05:37:30;;;;;;;9.55;6.72;;;20.80;99.90;;;;;;5032061;28;20524;-52
2022/04/02 05:39:56;;;;;;;11.80;7.45;;;20.80;99.90;;;;;;5032207;28;20053;-53
2022/04/02 05:42:22;;;;;;;10.73;6.78;;;20.80;99.90;;;;;;5031983;28;20477;-52
2022/04/02 05:44:48;;;;;;;10.73;6.85;;;20.80;99.90;;;;;;5032141;28;20033;-52
2022/04/02 05:47:14;;;;;;;10.10;6.80;;;20.70;99.90;;;;;;5031226;28;20072;-52
2022/04/02 05:49:40;;;;;;;9.32;6.43;;;20.80;99.90;;;;;;5030654;28;20448;-53
2022/04/02 05:52:07;;;;;;;9.13;6.60;;;20.70;99.90;;;;;;5032015;28;20041;-52
2022/04/02 05:54:36;;;;;;;8.75;6.40;;;20.70;99.90;;;;;;5031808;28;20675;-53
2022/04/02 05:57:04;;;;;;;10.15;7.32;;;20.70;99.90;;;;;;5031672;28;20071;-52
2022/04/02 05:59:30;;;;;;;9.35;6.35;;;20.70;99.90;;;;;;5031897;28;20018;-53
2022/04/02 06:01:56;;;;;;;9.15;6.80;;;20.70;99.90;;;;;;5031712;28;20104;-53
2022/04/02 06:04:23;;;;;;;10.20;6.15;;;20.70;99.90;;;;;;5031828;28;20104;-53
2022/04/02 06:06:49;;;;;;;8.15;5.97;;;20.70;99.90;;;;;;5031840;28;20070;-52
2022/04/02 06:09:15;;;;;;;11.07;6.72;;;20.70;99.90;;;;;;5031615;28;20112;-52
2022/04/02 06:11:40;;;;;;;10.00;6.20;;;20.70;99.90;;;;;;5031541;28;20018;-52
2022/04/02 06:14:06;;;;;;;11.77;6.93;;;20.70;99.90;;;;;;5031713;28;20029;-52
2022/04/02 06:16:32;;;;;;;8.60;5.93;;;20.70;99.90;;;;;;5031515;28;20037;-53
2022/04/02 06:18:58;;;;;;;9.13;6.45;;;20.70;99.90;;;;;;5030289;28;20429;-53
2022/04/02 06:21:23;;;;;;;7.57;5.60;;;20.70;99.90;;;;;;5031868;28;20021;-53
2022/04/02 06:23:49;;;;;;;9.50;6.47;;;20.60;99.90;;;;;;5031250;28;20032;-52
2022/04/02 06:26:15;;;;;;;10.65;6.80;;;20.70;99.90;;;;;;5030106;28;20040;-52
2022/04/02 06:28:43;;;;;;;9.95;6.13;;;20.60;99.90;;;;;;5031207;28;20032;-52
2022/04/02 06:31:09;;;;;;;8.55;6.32;;;20.60;99.90;;;;;;5031277;28;20029;-52
2022/04/02 06:33:35;;;;;;;8.93;6.38;;;20.60;99.90;;;;;;5029902;28;20022;-52
2022/04/02 06:36:01;;;;;;;7.15;5.47;;;20.70;99.90;;;;;;5031146;28;20025;-52
2022/04/02 06:38:27;;;;;;;7.72;6.13;;;20.60;99.90;;;;;;5031146;28;20067;-52
2022/04/02 06:40:53;;;;;;;7.97;5.95;;;20.70;99.90;;;;;;5031335;28;20029;-52
2022/04/02 06:43:19;;;;;;;10.75;6.20;;;20.60;99.90;;;;;;5031278;28;20052;-52
2022/04/02 06:45:45;;;;;;;9.13;6.22;;;20.70;99.90;;;;;;5031462;28;20084;-52
2022/04/02 06:48:13;;;;;;;7.95;5.97;;;20.70;99.90;;;;;;5031136;28;20500;-52
2022/04/02 06:50:40;;;;;;;8.93;5.85;;;20.70;99.90;;;;;;5031124;28;20033;-52
2022/04/02 06:53:06;;;;;;;7.57;5.40;;;20.60;99.90;;;;;;5031099;28;20386;-53
2022/04/02 06:55:32;;;;;;;9.73;6.57;;;20.70;99.90;;;;;;5029748;28;20071;-52
2022/04/02 06:58:00;;;;;;;9.23;5.88;;;20.70;99.90;;;;;;5031049;28;20041;-52
2022/04/02 07:00:26;;;;;;;6.95;5.35;;;20.70;99.90;;;;;;5035304;28;20516;-52
2022/04/02 07:02:52;;;;;;;7.13;5.40;;;20.70;99.90;;;;;;5034931;28;20042;-52
2022/04/02 07:05:21;;;;;;;7.47;5.40;;;20.70;99.90;;;;;;5034994;28;20025;-51
2022/04/02 07:07:47;;;;;;;8.00;5.88;;;20.70;99.90;;;;;;5034835;28;20021;-52
2022/04/02 07:10:13;;;;;;;11.30;6.63;;;20.70;99.90;;;;;;5034828;28;20014;-52
2022/04/02 07:12:40;;;;;;;9.48;5.93;;;20.70;99.90;;;;;;5035087;28;20418;-52
2022/04/02 07:15:06;;;;;;;9.98;6.95;;;20.70;99.90;;;;;;5035044;28;20032;-52
2022/04/02 07:17:33;;;;;;;9.27;5.83;;;20.70;99.90;;;;;;5034714;28;20030;-52
2022/04/02 07:20:00;;;;;;;7.00;5.43;;;20.70;99.90;;;;;;5034676;28;20312;-52
2022/04/02 07:22:26;;;;;;;7.60;5.35;;;20.70;99.90;;;;;;5034870;28;20100;-52
2022/04/02 07:24:54;;;;;;;7.13;4.93;;;20.70;99.90;;;;;;5033420;28;20072;-52
2022/04/02 07:27:26;;;;;;;8.13;5.25;;;20.70;99.90;;;;;;5034581;28;20025;-53
2022/04/02 07:29:53;;;;;;;8.48;6.32;;;20.80;99.90;;;;;;5034523;28;20049;-52
2022/04/02 07:32:19;;;;;;;9.10;5.93;;;20.80;99.90;;;;;;5034487;28;20068;-53
2022/04/02 07:34:45;;;;;;;8.32;5.40;;;20.80;99.90;;;;;;5034586;28;20419;-52
2022/04/02 07:37:16;;;;;;;6.38;4.55;;;20.80;99.90;;;;;;5034179;28;20099;-52
2022/04/02 07:40:05;;;;;;;6.80;5.45;;;20.80;99.90;;;;;;5034177;28;20465;-52
2022/04/02 07:42:33;;;;;;;7.20;5.10;;;20.80;99.90;;;;;;5034273;28;20030;-52
2022/04/02 07:45:06;;;;;;;7.55;5.28;;;20.80;99.90;;;;;;5034537;28;20021;-52
2022/04/02 07:47:34;;;;;;;7.55;5.05;;;20.80;99.90;;;;;;5032851;28;20053;-52
2022/04/02 07:50:05;;;;;;;9.80;5.38;;;20.80;99.90;;;;;;5034304;28;20060;-52
2022/04/02 07:52:31;;;;;;;6.22;4.80;;;20.80;99.90;;;;;;5032998;28;20029;-52
2022/04/02 07:55:00;;;;;;;7.47;5.10;;;20.80;99.90;;;;;;5034205;28;20026;-52
2022/04/02 07:57:54;;;;;;;7.65;4.93;;;20.90;99.90;;;;;;5034224;28;20038;-52
2022/04/02 08:00:26;;;;;;;8.93;5.55;;;20.80;99.90;;;;;;5033157;28;20044;-52
2022/04/02 08:02:52;;;;;;;6.68;4.75;;;20.90;99.90;;;;;;5033978;28;20113;-52
2022/04/02 08:05:20;;;;;;;7.05;4.85;;;20.90;99.90;;;;;;5033912;28;20532;-52
2022/04/02 08:07:52;;;;;;;7.20;5.05;;;20.80;99.90;;;;;;5033894;28;20037;-53
2022/04/02 08:10:20;;;;;;;5.75;4.53;;;20.90;99.90;;;;;;5033132;28;20025;-52
2022/04/02 08:12:46;;;;;;;5.88;4.65;;;20.90;99.90;;;;;;5032595;28;20112;-53
2022/04/02 08:15:18;;;;;;;6.72;4.32;;;20.80;99.90;;;;;;5032424;28;20099;-53
2022/04/02 08:17:52;;;;;;;6.32;4.40;;;20.80;99.90;;;;;;5033501;28;20300;-52
2022/04/02 08:20:18;;;;;;;6.30;4.70;;;20.90;99.90;;;;;;5033514;28;20105;-53
2022/04/02 08:22:44;;;;;;;6.55;4.80;;;20.90;99.90;;;;;;5033598;28;20156;-51
2022/04/02 08:25:11;;;;;;;6.00;4.95;;;20.90;99.90;;;;;;5032336;28;20041;-52
2022/04/02 08:28:05;;;;;;;9.68;5.72;;;20.90;99.90;;;;;;5033549;28;20358;-51
2022/04/02 08:30:38;;;;;;;7.00;4.80;;;20.90;99.90;;;;;;5033724;28;20037;-52
2022/04/02 08:33:42;;;;;;;6.55;4.85;;;20.90;99.90;;;;;;5033298;28;20113;-52
2022/04/02 08:36:08;;;;;;;7.88;5.47;;;20.90;99.90;;;;;;5033245;28;20099;-52
2022/04/02 08:38:42;;;;;;;7.68;4.78;;;20.90;99.90;;;;;;5033144;28;20026;-53
2022/04/02 08:41:39;;;;;;;6.63;5.07;;;20.90;99.90;;;;;;5033183;28;20561;-52
2022/04/02 08:44:07;;;;;;;7.50;4.97;;;21.00;99.90;;;;;;5033229;28;20033;-51
2022/04/02 08:46:53;;;;;;;7.15;4.97;;;21.00;99.90;;;;;;5033192;28;20026;-52
2022/04/02 08:49:26;;;;;;;7.63;4.97;;;21.00;99.90;;;;;;5033047;28;20022;-52
2022/04/02 08:52:14;;;;;;;8.77;5.32;;;21.00;99.90;;;;;;5032948;28;20022;-51
2022/04/02 08:54:55;;;;;;;;;;;21.00;99.90;;;;;;5033414;28;20018;-52
2022/04/02 08:57:32;;;;;;;5.82;4.65;;;21.00;99.90;;;;;;5032710;28;19924;-52
2022/04/02 09:00:08;;;;;;;8.98;5.28;;;21.00;99.90;;;;;;5032538;28;20038;-53
2022/04/02 09:03:12;;;;;;;7.05;4.47;;;21.00;99.90;;;;;;5032960;28;20519;-52
2022/04/02 09:05:54;;;;;;;7.32;5.30;;;21.00;99.90;;;;;;5032711;28;20028;-53
2022/04/02 09:08:38;;;;;;;10.07;5.07;;;21.00;99.90;;;;;;5032528;28;20033;-53
2022/04/02 09:11:32;;;;;;;6.57;4.35;;;21.10;99.90;;;;;;5032670;28;20504;-53
2022/04/02 09:14:22;;;;;;;9.57;5.90;;;21.00;99.90;;;;;;5032457;28;20032;-53
2022/04/02 09:17:09;;;;;;;8.38;6.03;;;21.00;99.90;;;;;;5032517;28;20040;-52
2022/04/02 09:19:48;;;;;;;7.88;4.80;;;21.00;99.90;;;;;;5031198;28;20477;-52
2022/04/02 09:22:52;;;;;;;7.35;5.10;;;21.10;99.90;;;;;;5031515;28;20460;-52
2022/04/02 09:25:51;;;;;;;6.40;4.93;;;21.10;99.90;;;;;;5032123;28;20034;-53
2022/04/02 09:28:33;;;;;;;8.07;4.55;;;21.10;99.90;;;;;;5032138;28;20017;-52
2022/04/02 09:31:13;;;;;;;6.80;4.93;;;21.10;99.90;;;;;;5032029;28;20040;-52
2022/04/02 09:33:58;;;;;;;6.28;5.03;;;21.10;99.90;;;;;;5032225;28;20049;-54
2022/04/02 09:36:33;;;;;;;6.97;4.75;;;21.10;99.90;;;;;;5032043;28;20041;-54
2022/04/02 09:39:06;;;;;;;6.25;4.72;;;21.20;99.90;;;;;;5032119;28;20022;-51
2022/04/02 09:41:51;;;;;;;7.55;5.18;;;21.20;99.90;;;;;;5030778;28;20395;-54
2022/04/02 09:44:45;;;;;;;7.97;5.18;;;21.20;99.90;;;;;;5031986;28;20077;-52
2022/04/02 09:47:46;;;;;;;8.00;5.72;;;21.20;99.90;;;;;;5031864;28;20096;-52
2022/04/02 09:50:14;;;;;;;6.80;5.22;;;21.30;99.90;;;;;;5018877;28;20390;-53
2022/04/02 09:52:52;;;;;;;8.68;5.32;;;21.30;99.90;;;;;;5031909;28;20373;-52
2022/04/02 09:55:23;;;;;;;6.60;4.55;;;21.30;99.90;;;;;;5031812;28;20025;-52
2022/04/02 09:58:16;;;;;;;8.75;5.30;;;21.30;99.90;;;;;;5030463;28;20056;-53
2022/04/02 10:01:03;;;;;;;7.18;5.10;;;21.30;99.90;;;;;;5031561;28;20428;-52
2022/04/02 10:03:40;;;;;;;8.30;5.18;;;21.40;99.90;;;;;;5031688;28;20044;-52
2022/04/02 10:06:15;;;;;;;8.25;5.25;;;21.40;99.90;;;;;;5031797;28;20072;-53
2022/04/02 10:08:49;;;;;;;9.73;5.38;;;21.50;99.90;;;;;;5031546;28;20029;-52
2022/04/02 10:11:17;;;;;;;8.07;5.28;;;21.50;99.90;;;;;;5031491;28;20021;-53
2022/04/02 10:13:45;;;;;;;7.63;5.35;;;21.50;99.90;;;;;;5031396;28;20029;-53
2022/04/02 10:16:14;;;;;;;7.72;5.70;;;21.50;99.90;;;;;;5031433;28;20037;-53
2022/04/02 10:18:44;;;;;;;8.45;5.47;;;21.60;99.90;;;;;;5031715;28;20026;-52
2022/04/02 10:21:13;;;;;;;9.57;5.65;;;21.60;99.90;;;;;;5031600;28;20057;-53
2022/04/02 10:23:53;;;;;;;8.40;6.38;;;21.60;99.90;;;;;;5031611;28;20024;-52
2022/04/02 10:26:22;;;;;;;9.80;6.32;;;21.60;99.90;;;;;;5031298;28;20030;-53
2022/04/02 10:28:54;;;;;;;8.55;6.03;;;21.60;99.90;;;;;;5031416;28;20024;-53
2022/04/02 10:31:59;;;;;;;9.05;5.95;;;21.60;99.90;;;;;;5031248;28;20087;-53
2022/04/02 10:34:50;;;;;;;9.63;6.18;;;21.70;99.90;;;;;;5030909;28;20049;-53
2022/04/02 10:37:18;;;;;;;10.52;5.88;;;21.70;99.90;;;;;;5031183;28;20743;-53
2022/04/02 10:40:03;;;;;;;7.95;6.00;;;21.80;99.90;;;;;;5031240;28;20104;-53
2022/04/02 10:42:53;;;;;;;10.30;6.43;;;21.80;99.90;;;;;;5031162;28;20489;-52
2022/04/02 10:45:20;;;;;;;8.95;5.93;;;21.80;99.90;;;;;;5031174;28;20551;-53
2022/04/02 10:48:12;;;;;;;8.15;6.28;;;21.80;99.90;;;;;;5031147;28;20385;-52
2022/04/02 10:50:44;;;;;;;11.10;6.53;;;21.80;99.90;;;;;;5031457;28;20030;-52
2022/04/02 10:53:13;;;;;;;11.38;7.03;;;21.90;99.90;;;;;;5029838;28;20026;-53
2022/04/02 10:55:45;;;;;;;11.07;6.35;;;21.90;99.90;;;;;;5031012;28;20116;-53
2022/04/02 10:58:12;;;;;;;9.90;6.45;;;21.80;99.90;;;;;;5031284;28;20452;-53
2022/04/02 11:00:43;;;;;;;7.85;5.40;;;21.80;99.90;;;;;;5031031;28;20053;-53
2022/04/02 11:03:25;;;;;;;10.40;6.78;;;21.90;99.90;;;;;;5030057;28;20026;-54
2022/04/02 11:05:51;;;;;;;10.50;7.13;;;21.90;99.90;;;;;;5030902;28;20022;-53
2022/04/02 11:08:22;;;;;;;13.02;7.35;;;21.90;99.90;;;;;;5030873;28;20029;-53
2022/04/02 11:10:48;;;;;;;12.20;7.45;;;21.90;99.90;;;;;;5030893;28;20478;-53
2022/04/02 11:13:28;;;;;;;9.52;6.75;;;22.00;99.90;;;;;;5030975;28;20037;-54
2022/04/02 11:15:55;;;;;;;11.18;6.80;;;22.00;99.90;;;;;;5030770;28;20041;-52
2022/04/02 11:18:21;;;;;;;10.13;6.97;;;22.00;99.90;;;;;;5030950;28;20049;-52
2022/04/02 11:20:48;;;;;;;8.82;6.40;;;22.00;99.90;;;;;;5030831;28;20064;-53
2022/04/02 11:23:51;;;;;;;12.00;6.63;;;22.00;99.90;;;;;;5030661;28;20053;-52
2022/04/02 11:26:22;;;;;;;10.35;6.85;;;22.00;99.90;;;;;;5021055;28;20449;-52
2022/04/02 11:28:52;;;;;;;11.27;7.07;;;22.10;99.90;;;;;;5030840;28;20033;-53
2022/04/02 11:31:28;;;;;;;9.85;6.18;;;22.10;99.90;;;;;;5030932;28;20473;-53
2022/04/02 11:33:54;;;;;;;10.57;7.18;;;22.10;99.90;;;;;;5030846;28;20476;-53
2022/04/02 11:36:42;;;;;;;9.90;7.03;;;22.10;99.90;;;;;;5030569;28;20064;-53
2022/04/02 11:39:13;;;;;;;10.73;6.95;;;22.20;99.90;;;;;;5029414;28;20037;-52
2022/04/02 11:41:42;;;;;;;10.77;7.18;;;22.20;99.90;;;;;;5029315;28;20477;-53
2022/04/02 11:44:10;;;;;;;14.27;7.40;;;22.20;99.90;;;;;;5030656;28;20473;-53
2022/04/02 11:46:56;;;;;;;13.80;6.75;;;22.20;99.90;;;;;;5032913;28;20043;-52
2022/04/02 11:49:31;;;;;;;11.93;7.22;;;22.20;99.90;;;;;;5034058;28;20018;-52
2022/04/02 11:52:08;;;;;;;12.23;7.45;;;22.20;99.90;;;;;;5034035;28;20029;-53
2022/04/02 11:54:50;;;;;;;9.35;6.43;;;22.20;99.90;;;;;;5034068;28;20033;-52
2022/04/02 11:57:17;;;;;;;10.10;6.68;;;22.20;99.90;;;;;;5034195;28;20029;-53
2022/04/02 12:00:05;;;;;;;14.20;7.25;;;22.30;99.90;;;;;;5033946;28;20350;-53
2022/04/02 12:02:39;;;;;;;10.93;7.25;;;22.30;99.90;;;;;;5034010;28;20056;-53
2022/04/02 12:05:08;;;;;;;10.80;6.57;;;22.30;99.90;;;;;;5033974;28;20157;-53
2022/04/02 12:07:39;;;;;;;11.20;7.80;;;22.30;99.90;;;;;;5033785;28;20159;-53
2022/04/02 12:10:15;;;;;;;11.13;7.28;;;22.30;99.90;;;;;;5033739;28;20026;-53
2022/04/02 12:12:52;;;;;;;12.40;8.00;;;22.30;99.90;;;;;;5032459;28;20152;-53
2022/04/02 12:15:18;;;;;;;12.68;7.13;;;22.30;99.90;;;;;;5033619;28;20028;-53
2022/04/02 12:17:52;;;;;;;12.57;7.60;;;22.30;99.90;;;;;;5032334;28;20049;-53
2022/04/02 12:20:55;;;;;;;11.65;8.25;;;22.30;99.90;;;;;;5033422;28;20240;-53
2022/04/02 12:23:20;;;;;;;13.60;9.10;;;22.30;99.90;;;;;;5020051;28;20034;-53
2022/04/02 12:26:00;;;;;;;14.50;7.88;;;22.30;99.90;;;;;;5033638;28;20074;-54
2022/04/02 12:28:27;;;;;;;10.13;7.18;;;22.40;99.90;;;;;;5033491;28;20052;-55
2022/04/02 12:31:02;;;;;;;12.55;8.05;;;22.40;99.90;;;;;;5033419;28;20021;-54
2022/04/02 12:33:29;;;;;;;11.98;7.55;;;22.40;99.90;;;;;;5033220;28;20036;-54
2022/04/02 12:36:06;;;;;;;14.02;7.72;;;22.40;99.90;;;;;;5033239;28;20021;-54
2022/04/02 12:38:38;;;;;;;11.57;7.45;;;22.40;99.90;;;;;;5033201;28;20212;-54
2022/04/02 12:41:17;;;;;;;11.20;7.38;;;22.40;99.90;;;;;;5033104;28;20025;-54
2022/04/02 12:43:47;;;;;;;11.90;7.22;;;22.40;99.90;;;;;;5033293;28;20034;-53
2022/04/02 12:46:25;;;;;;;10.13;6.85;;;22.40;99.90;;;;;;5033126;28;20097;-54
2022/04/02 12:48:51;;;;;;;13.98;7.18;;;22.40;99.90;;;;;;5032944;28;20488;-54
2022/04/02 12:51:18;;;;;;;13.63;7.97;;;22.40;99.90;;;;;;5031845;28;20185;-53
2022/04/02 12:53:47;;;;;;;9.40;6.78;;;22.40;99.90;;;;;;5033008;28;20033;-54
2022/04/02 12:56:27;;;;;;;9.93;7.03;;;22.40;99.90;;;;;;5032756;28;20413;-54
2022/04/02 12:58:55;;;;;;;10.98;6.97;;;22.40;99.90;;;;;;5032832;28;20094;-54
2022/04/02 13:01:24;;;;;;;;;;;22.40;99.90;;;;;;5033054;28;20494;-55